Time;durP1;ratioP1;P1;durP2;ratioP2;P2;SDS_P1;SDS_P2;PMS_P1;PMS_P2;Temp;Humidity;BMP_temperature;BMP_pressure;BME280_temperature;BME280_humidity;BME280_pressure;Samples;Min_cycle;Max_cycle;Signal;HPM_P1;HPM_P2
2023/08/11 00:00:25;;;;;;;2.72;2.03;;;22.30;89.60;;;;;;5054637;28;20021;-81
2023/08/11 00:02:51;;;;;;;2.75;1.40;;;22.30;89.60;;;;;;5069730;28;20036;-81
2023/08/11 00:05:17;;;;;;;1.98;1.48;;;22.30;89.90;;;;;;5053733;28;20025;-81
2023/08/11 00:07:50;;;;;;;1.95;1.10;;;22.30;89.80;;;;;;5054158;28;20040;-81
2023/08/11 00:10:19;;;;;;;1.13;0.80;;;22.20;89.70;;;;;;5054355;28;20473;-81
2023/08/11 00:12:45;;;;;;;2.58;1.45;;;22.30;89.60;;;;;;5054585;28;20033;-81
2023/08/11 00:15:12;;;;;;;1.48;1.10;;;22.30;89.60;;;;;;5053928;28;20039;-81
2023/08/11 00:17:38;;;;;;;2.25;1.25;;;22.30;89.60;;;;;;5054654;28;20126;-82
2023/08/11 00:20:06;;;;;;;3.10;2.58;;;22.30;89.60;;;;;;5054210;28;20025;-82
2023/08/11 00:22:32;;;;;;;2.08;1.10;;;22.30;90.10;;;;;;5052831;28;20087;-82
2023/08/11 00:24:58;;;;;;;2.40;0.90;;;22.30;90.00;;;;;;5054135;28;20461;-81
2023/08/11 00:27:24;;;;;;;1.30;0.88;;;22.20;90.00;;;;;;5053999;28;20051;-82
2023/08/11 00:29:49;;;;;;;4.45;2.15;;;22.20;90.00;;;;;;5036966;28;20033;-81
2023/08/11 00:32:15;;;;;;;3.50;2.38;;;22.20;90.10;;;;;;5054019;28;20032;-82
2023/08/11 00:34:41;;;;;;;5.95;2.03;;;22.20;90.20;;;;;;5053844;28;20036;-81
2023/08/11 00:37:07;;;;;;;4.25;1.95;;;22.10;90.30;;;;;;5052766;28;20493;-82
2023/08/11 00:39:33;;;;;;;3.17;1.40;;;22.10;90.50;;;;;;5054048;28;20121;-82
2023/08/11 00:41:59;;;;;;;2.30;1.90;;;22.00;90.40;;;;;;5053382;28;20453;-82
2023/08/11 00:44:24;;;;;;;1.40;1.10;;;22.00;90.60;;;;;;5052638;28;20036;-82
2023/08/11 00:46:50;;;;;;;1.35;0.80;;;21.90;90.50;;;;;;5052913;28;20036;-82
2023/08/11 00:49:16;;;;;;;2.22;1.23;;;21.90;90.50;;;;;;5053993;28;20029;-82
2023/08/11 00:51:42;;;;;;;1.90;1.15;;;21.90;90.50;;;;;;5054022;28;20044;-82
2023/08/11 00:54:10;;;;;;;1.05;0.82;;;21.90;90.50;;;;;;5054195;28;20100;-82
2023/08/11 00:56:36;;;;;;;1.52;0.80;;;21.90;90.50;;;;;;5054728;28;20032;-83
2023/08/11 00:59:02;;;;;;;1.48;0.73;;;22.00;90.50;;;;;;5037455;28;20106;-81
2023/08/11 01:01:28;;;;;;;2.22;1.00;;;22.00;90.40;;;;;;5053901;28;20393;-82
2023/08/11 01:03:53;;;;;;;3.55;1.75;;;22.00;90.40;;;;;;5054791;28;20044;-82
2023/08/11 01:06:41;;;;;;;2.30;1.48;;;22.00;90.50;;;;;;5054622;28;20041;-82
2023/08/11 01:09:42;;;;;;;1.25;1.10;;;22.00;90.50;;;;;;5054165;28;20520;-83
2023/08/11 01:12:13;;;;;;;2.17;1.70;;;22.00;90.40;;;;;;5049790;28;20171;-83
2023/08/11 01:14:38;;;;;;;1.63;1.30;;;22.00;90.50;;;;;;5054189;28;20059;-83
2023/08/11 01:17:06;;;;;;;2.80;1.50;;;22.00;90.60;;;;;;5053740;28;20041;-83
2023/08/11 01:19:34;;;;;;;3.22;2.25;;;22.00;90.60;;;;;;5053588;28;20100;-83
2023/08/11 01:22:02;;;;;;;2.72;2.35;;;21.90;90.70;;;;;;5053237;28;20017;-82
2023/08/11 01:24:30;;;;;;;4.22;1.83;;;22.00;90.80;;;;;;5056051;28;20036;-82
2023/08/11 01:26:57;;;;;;;3.50;2.67;;;21.90;90.80;;;;;;5059235;28;20048;-82
2023/08/11 01:29:24;;;;;;;2.63;1.83;;;21.90;90.90;;;;;;5058244;28;20032;-82
2023/08/11 01:31:50;;;;;;;1.95;1.13;;;21.90;90.90;;;;;;5057470;28;20063;-82
2023/08/11 01:34:16;;;;;;;2.35;1.65;;;21.80;91.00;;;;;;5057814;28;20377;-82
2023/08/11 01:36:42;;;;;;;4.30;3.25;;;21.80;91.00;;;;;;5057298;28;20466;-82
2023/08/11 01:39:09;;;;;;;1.95;1.55;;;21.80;91.30;;;;;;5057584;28;20052;-82
2023/08/11 01:41:37;;;;;;;3.20;2.90;;;21.70;91.30;;;;;;5057662;28;20025;-82
2023/08/11 01:44:03;;;;;;;2.15;1.33;;;21.70;91.40;;;;;;5057323;28;20112;-82
2023/08/11 01:46:29;;;;;;;4.25;2.30;;;21.60;91.30;;;;;;5057557;28;20041;-82
2023/08/11 01:48:56;;;;;;;1.60;1.27;;;21.60;91.40;;;;;;5056140;28;20033;-82
2023/08/11 01:51:26;;;;;;;1.85;1.50;;;21.60;91.30;;;;;;5057055;28;20394;-81
2023/08/11 01:53:52;;;;;;;1.40;1.20;;;21.60;91.40;;;;;;5057430;28;20029;-82
2023/08/11 01:56:20;;;;;;;1.25;0.82;;;21.60;91.30;;;;;;5057510;28;20047;-82
2023/08/11 01:58:46;;;;;;;1.88;1.20;;;21.70;91.30;;;;;;5057972;28;20140;-82
2023/08/11 02:01:13;;;;;;;2.55;1.10;;;21.70;91.30;;;;;;5057362;28;20492;-81
2023/08/11 02:03:39;;;;;;;1.58;1.27;;;21.70;91.30;;;;;;5056668;28;20116;-81
2023/08/11 02:06:05;;;;;;;2.72;2.13;;;21.70;91.30;;;;;;5058011;28;20024;-81
2023/08/11 02:08:32;;;;;;;1.75;1.58;;;21.70;91.20;;;;;;5056498;28;20386;-81
2023/08/11 02:10:57;;;;;;;1.98;1.48;;;21.70;91.30;;;;;;5056893;28;20025;-81
2023/08/11 02:13:23;;;;;;;2.65;1.75;;;21.70;91.30;;;;;;5055897;28;20029;-81
2023/08/11 02:15:49;;;;;;;2.40;1.65;;;21.70;91.60;;;;;;5056857;28;20025;-81
2023/08/11 02:18:14;;;;;;;1.60;1.00;;;21.70;91.30;;;;;;5055286;28;20045;-81
2023/08/11 02:20:41;;;;;;;3.35;1.95;;;21.60;91.30;;;;;;5056147;28;20032;-81
2023/08/11 02:23:07;;;;;;;2.90;1.50;;;21.60;91.30;;;;;;5056104;28;20538;-81
2023/08/11 02:25:33;;;;;;;2.55;1.73;;;21.70;91.40;;;;;;5056909;28;20446;-81
2023/08/11 02:27:59;;;;;;;2.17;1.30;;;21.70;91.30;;;;;;5054972;28;20037;-81
2023/08/11 02:30:29;;;;;;;2.20;1.35;;;21.70;91.30;;;;;;5054908;28;20029;-81
2023/08/11 02:32:55;;;;;;;3.92;1.63;;;21.60;91.30;;;;;;5056845;28;20033;-81
2023/08/11 02:35:21;;;;;;;2.00;1.33;;;21.60;91.30;;;;;;5056160;28;20118;-81
2023/08/11 02:37:47;;;;;;;2.15;1.42;;;21.70;91.40;;;;;;5055246;28;20068;-81
2023/08/11 02:40:19;;;;;;;1.55;1.30;;;21.60;91.40;;;;;;5055220;28;20060;-81
2023/08/11 02:42:49;;;;;;;2.22;1.60;;;21.60;91.40;;;;;;5056851;28;20068;-82
2023/08/11 02:45:15;;;;;;;3.20;1.95;;;21.60;91.50;;;;;;5054683;28;20037;-81
2023/08/11 02:47:41;;;;;;;2.70;1.92;;;21.60;91.60;;;;;;5057018;28;20032;-82
2023/08/11 02:50:08;;;;;;;2.67;1.67;;;21.50;91.60;;;;;;5055308;28;20067;-82
2023/08/11 02:52:35;;;;;;;5.18;3.10;;;21.50;91.60;;;;;;5056183;28;20025;-82
2023/08/11 02:55:02;;;;;;;3.30;1.80;;;21.50;91.60;;;;;;5055961;28;20036;-81
2023/08/11 02:57:28;;;;;;;2.63;2.15;;;21.40;91.70;;;;;;5056423;28;20378;-81
2023/08/11 02:59:53;;;;;;;2.97;1.85;;;21.40;91.80;;;;;;5056780;28;20032;-80
2023/08/11 03:02:19;;;;;;;4.07;2.10;;;21.40;91.90;;;;;;5054891;28;20029;-80
2023/08/11 03:04:45;;;;;;;1.88;1.42;;;21.40;92.00;;;;;;5055624;28;20579;-80
2023/08/11 03:07:12;;;;;;;1.35;0.90;;;21.30;91.90;;;;;;5054182;28;20106;-80
2023/08/11 03:09:38;;;;;;;2.40;1.52;;;21.40;91.90;;;;;;5056028;28;20057;-80
2023/08/11 03:12:04;;;;;;;1.00;0.70;;;21.40;91.90;;;;;;5055564;28;20033;-80
2023/08/11 03:14:30;;;;;;;2.50;1.73;;;21.40;91.90;;;;;;5054399;28;20072;-80
2023/08/11 03:16:55;;;;;;;2.83;2.00;;;21.40;91.90;;;;;;5054170;28;20117;-81
2023/08/11 03:19:21;;;;;;;3.83;1.52;;;21.40;91.90;;;;;;5055677;28;20074;-81
2023/08/11 03:21:47;;;;;;;3.67;2.05;;;21.40;91.90;;;;;;5054273;28;20037;-81
2023/08/11 03:24:12;;;;;;;3.47;2.20;;;21.40;92.00;;;;;;5055418;28;20032;-82
2023/08/11 03:26:38;;;;;;;4.20;2.40;;;21.40;92.00;;;;;;5056274;28;20078;-82
2023/08/11 03:29:04;;;;;;;3.50;2.50;;;21.30;92.00;;;;;;5057563;28;20033;-81
2023/08/11 03:31:30;;;;;;;3.15;2.22;;;21.30;92.10;;;;;;5056378;28;20104;-82
2023/08/11 03:33:55;;;;;;;3.15;1.98;;;21.30;92.10;;;;;;5056110;28;20049;-82
2023/08/11 03:36:21;;;;;;;3.40;2.08;;;21.30;92.20;;;;;;5054929;28;20444;-82
2023/08/11 03:38:48;;;;;;;1.95;1.45;;;21.30;92.10;;;;;;5054743;28;20045;-82
2023/08/11 03:41:14;;;;;;;2.80;1.52;;;21.20;92.20;;;;;;5055447;28;20040;-81
2023/08/11 03:43:39;;;;;;;4.32;3.15;;;21.20;92.20;;;;;;5055763;28;20037;-81
2023/08/11 03:46:05;;;;;;;1.90;1.75;;;21.20;92.30;;;;;;5055764;28;20385;-82
2023/08/11 03:48:31;;;;;;;5.68;3.83;;;21.20;92.20;;;;;;5054925;28;20033;-81
2023/08/11 03:51:03;;;;;;;3.63;3.05;;;21.20;92.30;;;;;;5054020;28;20139;-81
2023/08/11 03:53:30;;;;;;;4.32;3.25;;;21.20;92.30;;;;;;5055304;28;20033;-81
2023/08/11 03:55:56;;;;;;;3.40;2.33;;;21.20;92.50;;;;;;5053257;28;20061;-80
2023/08/11 03:58:22;;;;;;;3.60;1.88;;;21.10;92.40;;;;;;5054853;28;20071;-81
2023/08/11 04:00:48;;;;;;;2.00;1.80;;;21.20;92.50;;;;;;5054516;28;20086;-81
2023/08/11 04:03:14;;;;;;;3.35;1.90;;;21.10;92.50;;;;;;5036593;28;20037;-81
2023/08/11 04:05:44;;;;;;;3.53;2.58;;;21.10;92.60;;;;;;5054509;28;20111;-80
2023/08/11 04:08:09;;;;;;;5.65;2.92;;;21.00;92.60;;;;;;5053086;28;20036;-81
2023/08/11 04:10:35;;;;;;;4.63;2.42;;;21.00;92.80;;;;;;5054587;28;20025;-81
2023/08/11 04:13:01;;;;;;;5.10;3.13;;;21.00;92.80;;;;;;5054235;28;20064;-80
2023/08/11 04:15:27;;;;;;;5.20;2.95;;;20.90;92.80;;;;;;5052712;28;20033;-81
2023/08/11 04:17:53;;;;;;;5.43;3.45;;;21.00;92.80;;;;;;5037215;28;20061;-81
2023/08/11 04:20:18;;;;;;;4.80;3.50;;;20.90;92.90;;;;;;5054111;28;20033;-80
2023/08/11 04:22:44;;;;;;;5.18;3.30;;;21.00;92.90;;;;;;5053415;28;20450;-81
2023/08/11 04:25:11;;;;;;;4.30;2.60;;;20.90;92.90;;;;;;5054164;28;20469;-81
2023/08/11 04:27:39;;;;;;;3.58;3.17;;;20.90;93.00;;;;;;5054178;28;20033;-81
2023/08/11 04:30:05;;;;;;;4.05;2.88;;;20.90;93.00;;;;;;5054106;28;20036;-81
2023/08/11 04:32:31;;;;;;;2.63;2.38;;;20.90;93.00;;;;;;5053735;28;20040;-81
2023/08/11 04:34:57;;;;;;;5.43;3.20;;;20.90;93.10;;;;;;5052650;28;20029;-81
2023/08/11 04:37:23;;;;;;;6.18;2.78;;;20.90;93.10;;;;;;5053944;28;20094;-81
2023/08/11 04:39:49;;;;;;;4.20;3.28;;;20.90;93.10;;;;;;5053670;28;20116;-81
2023/08/11 04:42:15;;;;;;;4.93;2.53;;;20.90;93.20;;;;;;5054428;28;20025;-81
2023/08/11 04:44:40;;;;;;;3.78;3.35;;;20.90;93.20;;;;;;5054318;28;20029;-80
2023/08/11 04:47:06;;;;;;;6.47;3.72;;;20.90;93.20;;;;;;5053298;28;20029;-81
2023/08/11 04:49:32;;;;;;;4.25;2.70;;;20.90;93.20;;;;;;5053858;28;20061;-81
2023/08/11 04:52:01;;;;;;;2.25;1.92;;;20.90;93.20;;;;;;5053938;28;20033;-80
2023/08/11 04:54:27;;;;;;;3.97;1.90;;;20.90;93.20;;;;;;5053791;28;20086;-81
2023/08/11 04:56:53;;;;;;;2.47;2.15;;;20.90;93.20;;;;;;5054027;28;20037;-80
2023/08/11 04:59:18;;;;;;;5.75;4.38;;;20.90;93.20;;;;;;5051869;28;20036;-79
2023/08/11 05:01:44;;;;;;;3.97;3.50;;;20.90;93.30;;;;;;5053546;28;20120;-81
2023/08/11 05:04:10;;;;;;;9.57;3.25;;;20.90;93.20;;;;;;5053778;28;20025;-81
2023/08/11 05:06:36;;;;;;;4.80;2.55;;;20.90;93.30;;;;;;5053519;28;20033;-81
2023/08/11 05:09:05;;;;;;;4.72;2.63;;;20.90;93.30;;;;;;5053415;28;20458;-81
2023/08/11 05:11:30;;;;;;;5.63;2.70;;;20.90;93.40;;;;;;5053505;28;20434;-81
2023/08/11 05:13:56;;;;;;;6.00;3.50;;;20.90;93.40;;;;;;5054015;28;20037;-80
2023/08/11 05:16:22;;;;;;;3.75;3.30;;;20.90;93.50;;;;;;5053976;28;20052;-81
2023/08/11 05:18:49;;;;;;;3.95;3.05;;;20.80;93.60;;;;;;5053587;28;20515;-80
2023/08/11 05:21:15;;;;;;;2.70;1.95;;;20.80;93.60;;;;;;5052414;28;20021;-81
2023/08/11 05:23:41;;;;;;;5.43;3.92;;;20.70;93.60;;;;;;5052252;28;20029;-81
2023/08/11 05:26:07;;;;;;;3.45;2.67;;;20.70;93.70;;;;;;5053465;28;20033;-79
2023/08/11 05:28:33;;;;;;;6.57;3.85;;;20.70;93.80;;;;;;5053873;28;20033;-80
2023/08/11 05:31:00;;;;;;;3.53;2.75;;;20.70;93.90;;;;;;5052400;28;20087;-80
2023/08/11 05:33:26;;;;;;;4.95;4.03;;;20.70;93.80;;;;;;5054130;28;20162;-81
2023/08/11 05:35:52;;;;;;;6.10;4.10;;;20.70;93.90;;;;;;5054411;28;20071;-80
2023/08/11 05:38:21;;;;;;;4.43;3.85;;;20.70;94.10;;;;;;5053269;28;20065;-81
2023/08/11 05:40:47;;;;;;;5.35;3.28;;;20.60;94.20;;;;;;5053358;28;20025;-81
2023/08/11 05:43:13;;;;;;;3.95;3.08;;;20.60;94.20;;;;;;5052423;28;20454;-81
2023/08/11 05:45:39;;;;;;;4.53;3.42;;;20.70;94.20;;;;;;5052537;28;20033;-80
2023/08/11 05:48:05;;;;;;;4.68;3.13;;;20.70;94.20;;;;;;5052438;28;20029;-81
2023/08/11 05:50:30;;;;;;;2.15;1.70;;;20.70;94.30;;;;;;5053392;28;20040;-80
2023/08/11 05:52:56;;;;;;;6.30;3.65;;;20.80;94.20;;;;;;5051932;28;20032;-81
2023/08/11 05:55:22;;;;;;;4.97;3.67;;;20.80;94.20;;;;;;5052329;28;20064;-81
2023/08/11 05:57:48;;;;;;;5.00;3.67;;;20.80;94.20;;;;;;5053454;28;20036;-81
2023/08/11 06:00:18;;;;;;;3.17;2.83;;;20.80;94.10;;;;;;5052158;28;20075;-80
2023/08/11 06:02:44;;;;;;;5.32;4.68;;;20.80;94.10;;;;;;5053211;28;20040;-81
2023/08/11 06:05:12;;;;;;;3.58;2.40;;;20.80;94.10;;;;;;5053510;28;20025;-81
2023/08/11 06:07:38;;;;;;;7.78;4.80;;;20.90;94.10;;;;;;5053601;28;20028;-81
2023/08/11 06:10:04;;;;;;;4.85;3.22;;;20.90;94.00;;;;;;5053549;28;20108;-80
2023/08/11 06:12:30;;;;;;;5.30;2.75;;;21.00;93.90;;;;;;5053845;28;20044;-80
2023/08/11 06:14:56;;;;;;;3.55;2.35;;;21.00;93.80;;;;;;5056799;28;20025;-80
2023/08/11 06:17:22;;;;;;;6.72;3.45;;;21.10;93.80;;;;;;5056611;28;20040;-80
2023/08/11 06:19:48;;;;;;;5.35;3.75;;;21.10;93.70;;;;;;5056232;28;20033;-80
2023/08/11 06:22:13;;;;;;;5.28;3.70;;;21.20;93.60;;;;;;5056795;28;20025;-80
2023/08/11 06:24:39;;;;;;;5.93;3.30;;;21.20;93.60;;;;;;5055844;28;20033;-81
2023/08/11 06:27:06;;;;;;;4.80;3.72;;;21.30;93.60;;;;;;5056623;28;20457;-80
2023/08/11 06:29:31;;;;;;;5.22;2.72;;;21.30;93.50;;;;;;5055491;28;20494;-80
2023/08/11 06:31:57;;;;;;;3.80;2.63;;;21.40;93.40;;;;;;5056233;28;20029;-80
2023/08/11 06:34:23;;;;;;;6.75;3.38;;;21.40;93.30;;;;;;5056865;28;20112;-81
2023/08/11 06:36:49;;;;;;;3.42;2.67;;;21.50;93.30;;;;;;5055375;28;20064;-81
2023/08/11 06:39:15;;;;;;;7.25;4.95;;;21.60;93.30;;;;;;5057739;28;20351;-81
2023/08/11 06:41:41;;;;;;;7.32;5.45;;;21.60;93.20;;;;;;5056997;28;20083;-80
2023/08/11 06:44:07;;;;;;;3.88;3.47;;;21.50;93.40;;;;;;5056442;28;20479;-81
2023/08/11 06:46:34;;;;;;;6.95;4.75;;;21.50;93.80;;;;;;5057334;28;20113;-80
2023/08/11 06:48:59;;;;;;;6.78;4.88;;;21.60;93.80;;;;;;5056267;28;20059;-82
2023/08/11 06:51:25;;;;;;;6.22;4.00;;;21.50;93.70;;;;;;5056583;28;20060;-82
2023/08/11 06:53:51;;;;;;;4.63;3.67;;;21.60;93.50;;;;;;5056481;28;20124;-82
2023/08/11 06:56:16;;;;;;;6.18;3.75;;;21.70;93.40;;;;;;5055206;28;20522;-81
2023/08/11 06:58:42;;;;;;;7.80;5.43;;;21.80;93.70;;;;;;5055380;28;20535;-82
2023/08/11 07:01:08;;;;;;;8.43;5.05;;;21.80;93.90;;;;;;5055860;28;20486;-82
2023/08/11 07:03:33;;;;;;;6.70;5.28;;;21.80;94.00;;;;;;5055690;28;20113;-82
2023/08/11 07:06:00;;;;;;;6.65;4.70;;;21.80;94.10;;;;;;5055550;28;20044;-82
2023/08/11 07:08:26;;;;;;;8.45;5.07;;;21.90;94.10;;;;;;5055646;28;20473;-82
2023/08/11 07:10:51;;;;;;;5.05;4.03;;;21.90;94.20;;;;;;5054572;28;20043;-82
2023/08/11 07:13:17;;;;;;;6.20;4.03;;;21.90;94.10;;;;;;5056036;28;20029;-82
2023/08/11 07:15:43;;;;;;;5.93;3.85;;;22.10;93.80;;;;;;5056009;28;20082;-82
2023/08/11 07:18:12;;;;;;;8.43;4.55;;;22.10;93.90;;;;;;5055997;28;20528;-82
2023/08/11 07:20:44;;;;;;;7.78;4.78;;;22.20;94.10;;;;;;5054645;28;20032;-82
2023/08/11 07:23:10;;;;;;;7.25;4.22;;;22.10;94.20;;;;;;5055666;28;20036;-82
2023/08/11 07:25:36;;;;;;;6.70;4.40;;;22.10;94.00;;;;;;5056374;28;20116;-82
2023/08/11 07:28:02;;;;;;;7.40;3.60;;;22.20;94.10;;;;;;5054500;28;20064;-82
2023/08/11 07:30:31;;;;;;;8.80;4.90;;;22.30;93.80;;;;;;5055645;28;20112;-82
2023/08/11 07:32:57;;;;;;;8.13;4.90;;;22.40;93.40;;;;;;5054962;28;20036;-82
2023/08/11 07:35:24;;;;;;;9.40;4.68;;;22.40;93.50;;;;;;5054715;28;20595;-82
2023/08/11 07:37:49;;;;;;;8.23;4.65;;;22.50;93.60;;;;;;5055497;28;20094;-83
2023/08/11 07:40:16;;;;;;;11.55;5.18;;;22.60;93.70;;;;;;5055223;28;20127;-83
2023/08/11 07:42:42;;;;;;;12.15;4.82;;;22.70;93.50;;;;;;5055476;28;20029;-83
2023/08/11 07:45:08;;;;;;;10.48;4.93;;;22.70;93.00;;;;;;5054234;28;20381;-82
2023/08/11 07:47:34;;;;;;;9.23;4.63;;;22.70;92.70;;;;;;5054738;28;20037;-82
2023/08/11 07:49:59;;;;;;;7.10;4.30;;;22.80;93.30;;;;;;5054925;28;20029;-83
2023/08/11 07:52:25;;;;;;;9.68;4.28;;;22.90;93.50;;;;;;5037483;28;20036;-83
2023/08/11 07:54:51;;;;;;;8.10;4.18;;;23.00;93.30;;;;;;5055047;28;20068;-83
2023/08/11 07:57:16;;;;;;;7.18;4.15;;;23.00;92.60;;;;;;5054106;28;20394;-83
2023/08/11 07:59:42;;;;;;;9.02;4.35;;;23.10;92.60;;;;;;5055635;28;20075;-81
2023/08/11 08:02:08;;;;;;;7.65;4.22;;;23.00;92.40;;;;;;5055366;28;20029;-82
2023/08/11 08:04:34;;;;;;;10.35;4.60;;;23.10;92.30;;;;;;5054888;28;20386;-83
2023/08/11 08:07:00;;;;;;;8.07;4.45;;;23.20;92.90;;;;;;5055595;28;20056;-82
2023/08/11 08:09:25;;;;;;;6.40;4.45;;;23.30;93.50;;;;;;5054135;28;20029;-81
2023/08/11 08:11:51;;;;;;;6.47;4.22;;;23.40;93.10;;;;;;5054075;28;20457;-80
2023/08/11 08:14:17;;;;;;;6.45;3.83;;;23.50;92.70;;;;;;5055639;28;20064;-83
2023/08/11 08:16:46;;;;;;;7.32;4.45;;;23.60;93.00;;;;;;5055049;28;20049;-83
2023/08/11 08:19:12;;;;;;;8.15;4.25;;;23.70;93.30;;;;;;5054152;28;20068;-83
2023/08/11 08:21:39;;;;;;;9.30;4.25;;;23.80;93.00;;;;;;5054686;28;20029;-83
2023/08/11 08:24:05;;;;;;;6.93;4.55;;;23.90;92.60;;;;;;5053935;28;20086;-83
2023/08/11 08:26:31;;;;;;;7.05;3.58;;;23.90;92.20;;;;;;5054322;28;20063;-83
2023/08/11 08:28:57;;;;;;;5.40;3.95;;;23.90;92.40;;;;;;5054434;28;20030;-83
2023/08/11 08:31:23;;;;;;;7.60;4.25;;;24.00;93.10;;;;;;5054209;28;20029;-82
2023/08/11 08:33:49;;;;;;;9.88;4.00;;;24.00;92.50;;;;;;5054441;28;20465;-82
2023/08/11 08:36:14;;;;;;;5.88;3.38;;;24.10;92.20;;;;;;5052042;28;20037;-82
2023/08/11 08:38:40;;;;;;;9.25;4.05;;;24.20;92.40;;;;;;5053746;28;20060;-82
2023/08/11 08:41:08;;;;;;;6.55;3.60;;;24.30;91.80;;;;;;5054115;28;20529;-83
2023/08/11 08:43:35;;;;;;;6.25;4.07;;;24.40;91.30;;;;;;5054435;28;20094;-82
2023/08/11 08:46:02;;;;;;;7.80;4.00;;;24.40;91.50;;;;;;5054010;28;20039;-83
2023/08/11 08:48:39;;;;;;;7.88;3.60;;;24.40;91.30;;;;;;5054342;28;20033;-82
2023/08/11 08:51:06;;;;;;;5.70;3.38;;;24.50;91.00;;;;;;5054293;28;20052;-83
2023/08/11 08:53:32;;;;;;;5.95;3.22;;;24.60;91.90;;;;;;5053991;28;20025;-83
2023/08/11 08:55:58;;;;;;;9.35;3.28;;;24.80;91.60;;;;;;5054120;28;20056;-83
2023/08/11 08:58:23;;;;;;;8.05;3.30;;;24.90;91.20;;;;;;5053813;28;20075;-83
2023/08/11 09:00:51;;;;;;;7.50;3.30;;;25.00;90.80;;;;;;5054099;28;20454;-82
2023/08/11 09:03:17;;;;;;;8.77;3.10;;;25.20;90.80;;;;;;5053595;28;20033;-83
2023/08/11 09:05:43;;;;;;;5.15;3.10;;;25.20;91.60;;;;;;5053851;28;20079;-83
2023/08/11 09:08:08;;;;;;;6.15;3.25;;;25.30;91.70;;;;;;5053977;28;20493;-83
2023/08/11 09:10:36;;;;;;;7.05;3.03;;;25.40;91.30;;;;;;5070039;28;20044;-82
2023/08/11 09:13:03;;;;;;;4.60;2.55;;;25.50;90.20;;;;;;5036816;28;20474;-83
2023/08/11 09:15:29;;;;;;;4.18;3.20;;;25.60;89.80;;;;;;5054691;28;20112;-83
2023/08/11 09:17:55;;;;;;;7.82;2.75;;;25.60;90.40;;;;;;5053661;28;20037;-83
2023/08/11 09:20:20;;;;;;;3.00;2.38;;;25.80;90.50;;;;;;5053253;28;20029;-83
2023/08/11 09:22:46;;;;;;;6.07;2.75;;;25.80;90.00;;;;;;5052385;28;20040;-83
2023/08/11 09:25:12;;;;;;;5.88;2.80;;;25.90;88.60;;;;;;5052831;28;20068;-82
2023/08/11 09:27:38;;;;;;;6.70;2.40;;;26.00;89.70;;;;;;5053527;28;20040;-83
2023/08/11 09:30:04;;;;;;;4.53;2.40;;;26.20;90.10;;;;;;5054746;28;20032;-82
2023/08/11 09:32:33;;;;;;;3.20;2.20;;;26.30;90.40;;;;;;5053524;28;20466;-83
2023/08/11 09:35:09;;;;;;;6.30;2.60;;;26.40;88.70;;;;;;5053917;28;20083;-83
2023/08/11 09:37:36;;;;;;;6.28;2.33;;;26.40;86.50;;;;;;5054820;28;20056;-82
2023/08/11 09:40:04;;;;;;;4.88;2.53;;;26.50;85.20;;;;;;5053737;28;20061;-80
2023/08/11 09:42:31;;;;;;;5.70;2.60;;;26.60;84.50;;;;;;5052668;28;20115;-84
2023/08/11 09:44:56;;;;;;;4.18;2.50;;;26.60;85.60;;;;;;5052720;28;20033;-83
2023/08/11 09:47:22;;;;;;;7.28;2.00;;;26.60;85.60;;;;;;5057062;28;20033;-83
2023/08/11 09:49:48;;;;;;;4.07;2.15;;;26.70;84.90;;;;;;5058309;28;20477;-83
2023/08/11 09:52:15;;;;;;;4.80;2.20;;;26.80;84.10;;;;;;5039739;28;20087;-82
2023/08/11 09:54:47;;;;;;;4.60;2.17;;;27.00;83.10;;;;;;5058535;28;20029;-83
2023/08/11 09:57:13;;;;;;;3.40;1.73;;;27.00;85.10;;;;;;5058017;28;20480;-83
2023/08/11 09:59:40;;;;;;;4.60;1.90;;;27.00;84.30;;;;;;5057507;28;20025;-83
2023/08/11 10:02:14;;;;;;;4.40;1.98;;;27.00;86.70;;;;;;5057988;28;20045;-83
2023/08/11 10:04:44;;;;;;;3.78;1.88;;;26.90;87.80;;;;;;5058217;28;20036;-83
2023/08/11 10:07:13;;;;;;;5.15;1.80;;;26.90;87.50;;;;;;5057800;28;20103;-83
2023/08/11 10:09:41;;;;;;;3.95;2.10;;;27.10;83.40;;;;;;5040591;28;20036;-83
2023/08/11 10:12:08;;;;;;;4.22;2.00;;;27.20;81.60;;;;;;5058409;28;20033;-82
2023/08/11 10:14:36;;;;;;;3.92;2.03;;;27.40;81.70;;;;;;5057778;28;20496;-84
2023/08/11 10:17:03;;;;;;;5.35;1.95;;;27.50;81.40;;;;;;5057056;28;20037;-83
2023/08/11 10:19:29;;;;;;;5.28;1.95;;;27.50;81.20;;;;;;5057993;28;20037;-84
2023/08/11 10:21:56;;;;;;;3.33;2.10;;;27.40;80.70;;;;;;5057951;28;20465;-83
2023/08/11 10:24:24;;;;;;;4.28;2.00;;;27.30;80.70;;;;;;5058735;28;20040;-83
2023/08/11 10:26:50;;;;;;;2.65;1.90;;;27.40;80.70;;;;;;5059600;28;20116;-83
2023/08/11 10:29:17;;;;;;;8.55;2.40;;;27.50;80.70;;;;;;5056680;28;20025;-83
2023/08/11 10:31:56;;;;;;;4.30;2.00;;;27.70;79.30;;;;;;5056367;28;20037;-84
2023/08/11 10:34:25;;;;;;;4.70;1.90;;;27.80;78.80;;;;;;5057807;28;20056;-83
2023/08/11 10:36:55;;;;;;;7.03;2.08;;;27.80;79.80;;;;;;5058731;28;20063;-84
2023/08/11 10:39:22;;;;;;;3.20;1.77;;;27.80;79.40;;;;;;5059025;28;20381;-83
2023/08/11 10:41:49;;;;;;;4.40;2.00;;;27.90;81.60;;;;;;5061492;28;20032;-83
2023/08/11 10:44:19;;;;;;;3.35;2.53;;;27.90;81.20;;;;;;5058880;28;20037;-83
2023/08/11 10:46:45;;;;;;;3.70;2.00;;;28.00;79.50;;;;;;5058095;28;20099;-83
2023/08/11 10:49:14;;;;;;;3.45;1.63;;;28.10;78.50;;;;;;5060055;28;20056;-84
2023/08/11 10:51:41;;;;;;;2.13;1.90;;;28.20;79.30;;;;;;5058934;28;20036;-84
2023/08/11 10:54:06;;;;;;;4.28;2.03;;;28.40;81.90;;;;;;5059064;28;20063;-84
2023/08/11 10:56:36;;;;;;;5.40;2.00;;;28.50;81.30;;;;;;5059299;28;20030;-83
2023/08/11 10:59:27;;;;;;;6.85;2.05;;;28.60;79.50;;;;;;5057607;28;20025;-83
2023/08/11 11:01:53;;;;;;;7.25;2.22;;;28.60;78.80;;;;;;5058194;28;20041;-82
2023/08/11 11:04:21;;;;;;;5.57;2.10;;;28.60;78.10;;;;;;5057523;28;20530;-84
2023/08/11 11:06:49;;;;;;;3.67;2.22;;;28.70;77.80;;;;;;5056094;28;20038;-81
2023/08/11 11:09:15;;;;;;;3.25;1.80;;;28.70;76.80;;;;;;5058979;28;20449;-83
2023/08/11 11:11:41;;;;;;;3.35;1.90;;;28.80;77.00;;;;;;5059914;28;20045;-83
2023/08/11 11:14:09;;;;;;;13.23;2.22;;;28.90;78.50;;;;;;5060716;28;20508;-83
2023/08/11 11:16:36;;;;;;;5.10;1.90;;;29.00;77.30;;;;;;5060134;28;20041;-82
2023/08/11 11:19:06;;;;;;;2.25;1.40;;;29.10;77.50;;;;;;5061071;28;20504;-82
2023/08/11 11:21:33;;;;;;;3.45;1.45;;;29.20;78.50;;;;;;5060154;28;20037;-84
2023/08/11 11:23:59;;;;;;;2.13;1.35;;;29.30;77.60;;;;;;5057946;28;20037;-84
2023/08/11 11:26:30;;;;;;;3.20;1.58;;;29.20;76.50;;;;;;5062021;28;20036;-81
2023/08/11 11:28:58;;;;;;;3.33;1.38;;;29.20;76.10;;;;;;5059855;28;20025;-81
2023/08/11 11:31:29;;;;;;;4.32;1.60;;;29.20;75.00;;;;;;5060458;28;20094;-83
2023/08/11 11:33:55;;;;;;;2.85;1.05;;;29.20;75.70;;;;;;5056926;28;20456;-84
2023/08/11 11:36:23;;;;;;;6.20;1.30;;;29.30;78.90;;;;;;5055968;28;20037;-84
2023/08/11 11:38:49;;;;;;;2.42;1.33;;;29.40;79.70;;;;;;5057622;28;20057;-84
2023/08/11 11:41:18;;;;;;;1.50;1.05;;;29.50;80.40;;;;;;5057394;28;20044;-84
2023/08/11 11:43:48;;;;;;;2.33;1.17;;;29.60;77.00;;;;;;5057208;28;20389;-84
2023/08/11 11:46:16;;;;;;;2.05;1.40;;;29.60;76.30;;;;;;5057704;28;20100;-84
2023/08/11 11:48:46;;;;;;;4.72;1.30;;;29.60;74.70;;;;;;5056142;28;20588;-83
2023/08/11 11:51:12;;;;;;;2.35;1.10;;;29.60;73.90;;;;;;5056478;28;20025;-84
2023/08/11 11:53:39;;;;;;;3.65;1.00;;;29.60;72.40;;;;;;5058500;28;20029;-84
2023/08/11 11:56:05;;;;;;;3.92;1.15;;;29.50;72.50;;;;;;5057671;28;20029;-84
2023/08/11 11:58:35;;;;;;;3.88;1.60;;;29.50;72.70;;;;;;5060878;28;20041;-84
2023/08/11 12:01:21;;;;;;;4.68;1.25;;;29.50;73.20;;;;;;5055425;28;20021;-84
2023/08/11 12:03:49;;;;;;;4.20;1.40;;;29.60;73.60;;;;;;5056678;28;20084;-83
2023/08/11 12:06:18;;;;;;;4.32;1.15;;;29.60;73.70;;;;;;5057276;28;20020;-84
2023/08/11 12:08:44;;;;;;;3.22;1.25;;;29.70;73.00;;;;;;5056093;28;20102;-84
2023/08/11 12:11:11;;;;;;;3.92;1.20;;;29.80;75.10;;;;;;5056137;28;20025;-83
2023/08/11 12:13:39;;;;;;;3.35;1.20;;;29.80;75.70;;;;;;5056826;28;20021;-84
2023/08/11 12:16:07;;;;;;;3.30;1.27;;;29.90;74.00;;;;;;5056474;28;20107;-85
2023/08/11 12:18:33;;;;;;;2.88;1.10;;;29.90;73.00;;;;;;5055293;28;20193;-84
2023/08/11 12:21:01;;;;;;;2.17;1.17;;;30.00;72.80;;;;;;5055713;28;20071;-83
2023/08/11 12:23:27;;;;;;;2.20;1.35;;;30.00;73.10;;;;;;5056313;28;20481;-83
2023/08/11 12:25:54;;;;;;;4.15;1.60;;;30.10;72.80;;;;;;5055515;28;20029;-84
2023/08/11 12:28:20;;;;;;;2.10;1.00;;;30.10;72.80;;;;;;5056182;28;20083;-83
2023/08/11 12:30:46;;;;;;;1.80;1.05;;;30.10;71.60;;;;;;5058760;28;20048;-83
2023/08/11 12:33:12;;;;;;;3.45;1.20;;;30.10;71.50;;;;;;5057176;28;20029;-83
2023/08/11 12:35:37;;;;;;;2.60;0.90;;;30.10;71.60;;;;;;5037570;28;20110;-83
2023/08/11 12:38:05;;;;;;;3.78;1.05;;;30.10;71.50;;;;;;5054201;28;20045;-83
2023/08/11 12:40:31;;;;;;;2.78;1.15;;;30.10;71.90;;;;;;5054913;28;20057;-80
2023/08/11 12:42:57;;;;;;;3.47;1.00;;;30.10;72.30;;;;;;5054060;28;20162;-83